Time;durP1;ratioP1;P1;durP2;ratioP2;P2;SDS_P1;SDS_P2;PMS_P1;PMS_P2;Temp;Humidity;BMP_temperature;BMP_pressure;BME280_temperature;BME280_humidity;BME280_pressure;Samples;Min_cycle;Max_cycle;Signal;HPM_P1;HPM_P2
2022/03/17 00:00:32;;;;;;;;;;;10.70;99.90;;;;;;5096335;28;19953;-56
2022/03/17 00:02:57;;;;;;;;;;;10.70;99.90;;;;;;5095744;28;20339;-56
2022/03/17 00:05:23;;;;;;;;;;;10.60;99.90;;;;;;5095704;28;19923;-56
2022/03/17 00:07:49;;;;;;;;;;;10.60;99.90;;;;;;5095697;28;19912;-56
2022/03/17 00:10:15;;;;;;;;;;;10.60;99.90;;;;;;5095972;28;19954;-55
2022/03/17 00:12:42;;;;;;;;;;;10.60;99.90;;;;;;5077279;28;20262;-56
2022/03/17 00:15:08;;;;;;;;;;;10.60;99.90;;;;;;5095619;28;19965;-56
2022/03/17 00:17:34;;;;;;;;;;;10.60;99.90;;;;;;5096017;28;19908;-56
2022/03/17 00:19:59;;;;;;;;;;;10.50;99.90;;;;;;5095288;28;19915;-56
2022/03/17 00:22:25;;;;;;;;;;;10.60;99.90;;;;;;5095709;28;19955;-56
2022/03/17 00:24:50;;;;;;;;;;;10.50;99.90;;;;;;5095325;28;19912;-55
2022/03/17 00:27:15;;;;;;;;;;;10.50;99.90;;;;;;5095143;28;19908;-56
2022/03/17 00:29:41;;;;;;;;;;;10.60;99.90;;;;;;5095342;28;20010;-56
2022/03/17 00:32:07;;;;;;;;;;;10.60;99.90;;;;;;5095130;28;19920;-56
2022/03/17 00:35:35;;;;;;;;;;;10.50;99.90;;;;;;5094906;28;19908;-55
2022/03/17 00:37:23;;;;;;;;;;;10.60;99.90;;;;;;5095265;28;19969;-56
2022/03/17 00:39:49;;;;;;;;;;;10.50;99.90;;;;;;5094969;28;19912;-55
2022/03/17 00:42:15;;;;;;;;;;;10.50;99.90;;;;;;5094865;28;20422;-56
2022/03/17 00:44:41;;;;;;;;;;;10.50;99.90;;;;;;5095388;28;19908;-56
2022/03/17 00:47:07;;;;;;;;;;;10.50;99.90;;;;;;5094134;28;20058;-55
2022/03/17 00:49:32;;;;;;;;;;;10.50;99.90;;;;;;5095138;28;20372;-56
2022/03/17 00:51:58;;;;;;;;;;;10.50;99.90;;;;;;5094917;28;19912;-56
2022/03/17 00:54:23;;;;;;;;;;;10.50;99.90;;;;;;5094677;28;20378;-55
2022/03/17 00:56:49;;;;;;;;;;;10.50;99.90;;;;;;5095066;28;19912;-55
2022/03/17 00:59:14;;;;;;;;;;;10.50;99.90;;;;;;5094895;28;19912;-55
2022/03/17 01:01:39;;;;;;;;;;;10.50;99.90;;;;;;5094504;28;19954;-56
2022/03/17 01:04:05;;;;;;;;;;;10.50;99.90;;;;;;5094618;28;19916;-55
2022/03/17 01:06:30;;;;;;;;;;;10.50;99.90;;;;;;5094959;28;19912;-56
2022/03/17 01:08:56;;;;;;;;;;;10.50;99.90;;;;;;5094365;28;19947;-56
2022/03/17 01:11:22;;;;;;;;;;;10.50;99.90;;;;;;5094821;28;19958;-56
2022/03/17 01:13:47;;;;;;;;;;;10.50;99.90;;;;;;5093725;28;20381;-56
2022/03/17 01:16:13;;;;;;;;;;;10.50;99.90;;;;;;5094214;28;19915;-56
2022/03/17 01:18:39;;;;;;;;;;;10.60;99.90;;;;;;5094734;28;19912;-56
2022/03/17 01:21:04;;;;;;;;;;;10.50;99.90;;;;;;5094382;28;20359;-56
2022/03/17 01:23:30;;;;;;;;;;;10.50;99.90;;;;;;5094102;28;20366;-56
2022/03/17 01:25:55;;;;;;;;;;;10.60;99.90;;;;;;5094703;28;19985;-56
2022/03/17 01:28:20;;;;;;;;;;;10.60;99.90;;;;;;5094527;28;19912;-56
2022/03/17 01:30:46;;;;;;;;;;;10.60;99.90;;;;;;5093448;28;19927;-56
2022/03/17 01:33:11;;;;;;;;;;;10.60;99.90;;;;;;5094342;28;19916;-56
2022/03/17 01:35:37;;;;;;;;;;;10.70;99.90;;;;;;5094396;28;19908;-55
2022/03/17 01:38:02;;;;;;;;;;;10.70;99.90;;;;;;5093902;28;20010;-56
2022/03/17 01:40:28;;;;;;;;;;;10.70;99.90;;;;;;5094097;28;19912;-56
2022/03/17 01:42:53;;;;;;;;;;;10.70;99.90;;;;;;5074042;28;19951;-56
2022/03/17 01:45:19;;;;;;;;;;;10.70;99.90;;;;;;5073539;28;20371;-56
2022/03/17 01:47:44;;;;;;;;;;;10.70;99.90;;;;;;5073966;28;19908;-55
2022/03/17 01:50:11;;;;;;;;;;;10.80;99.90;;;;;;5073179;28;19951;-55
2022/03/17 01:52:38;;;;;;;;;;;10.80;99.90;;;;;;5092556;28;19908;-55
2022/03/17 01:55:04;;;;;;;;;;;10.80;99.90;;;;;;5093710;28;19991;-55
2022/03/17 01:57:31;;;;;;;;;;;10.80;99.90;;;;;;5093443;28;19908;-56
2022/03/17 01:59:58;;;;;;;;;;;10.90;99.90;;;;;;5093391;28;20006;-56
2022/03/17 02:02:24;;;;;;;;;;;10.90;99.90;;;;;;5093789;28;19947;-56
2022/03/17 02:04:50;;;;;;;;;;;10.90;99.90;;;;;;5093468;28;19947;-56
2022/03/17 02:07:16;;;;;;;;;;;10.90;99.90;;;;;;5093658;28;19974;-55
2022/03/17 02:09:42;;;;;;;;;;;10.90;99.90;;;;;;5093493;28;19912;-55
2022/03/17 02:14:58;;;;;;;;;;;11.00;99.90;;;;;;5094168;28;19938;-56
2022/03/17 02:17:24;;;;;;;;;;;10.90;99.90;;;;;;5093753;28;20362;-56
2022/03/17 02:19:50;;;;;;;;;;;10.90;99.90;;;;;;5092865;28;19908;-56
2022/03/17 02:22:17;;;;;;;;;;;10.90;99.90;;;;;;5093315;28;19911;-56
2022/03/17 02:27:29;;;;;;;;;;;10.80;99.90;;;;;;5093349;28;19931;-56
2022/03/17 02:29:55;;;;;;;;;;;10.80;99.90;;;;;;5092722;28;19932;-56
2022/03/17 02:32:20;;;;;;;;;;;10.80;99.90;;;;;;5092942;28;19909;-56
2022/03/17 02:34:46;;;;;;;;;;;10.80;99.90;;;;;;5093678;28;19987;-56
2022/03/17 02:37:15;;;;;;;;;;;10.80;99.90;;;;;;5093493;28;19908;-55
2022/03/17 02:39:42;;;;;;;;;;;10.80;99.90;;;;;;5092560;28;19912;-55
2022/03/17 02:42:10;;;;;;;;;;;10.70;99.90;;;;;;5093455;28;19916;-55
2022/03/17 02:44:38;;;;;;;;;;;10.70;99.90;;;;;;5093531;28;19976;-55
2022/03/17 02:47:04;;;;;;;;;;;10.70;99.90;;;;;;5092818;28;19949;-56
2022/03/17 02:49:30;;;;;;;;;;;10.70;99.90;;;;;;5092996;28;19912;-55
2022/03/17 02:51:55;;;;;;;;;;;10.70;99.90;;;;;;5093399;28;20461;-55
2022/03/17 02:54:21;;;;;;;;;;;10.70;99.90;;;;;;5092877;28;19908;-56
2022/03/17 02:56:46;;;;;;;;;;;10.70;99.90;;;;;;5093273;28;20003;-55
2022/03/17 02:59:12;;;;;;;;;;;10.70;99.90;;;;;;5092941;28;20007;-56
2022/03/17 03:01:37;;;;;;;;;;;10.70;99.90;;;;;;5092750;28;19908;-56
2022/03/17 03:04:02;;;;;;;;;;;10.70;99.90;;;;;;5092659;28;19916;-56
2022/03/17 03:06:28;;;;;;;;;;;10.70;99.90;;;;;;5093222;28;19908;-55
2022/03/17 03:08:53;;;;;;;;;;;10.70;99.90;;;;;;5092761;28;20374;-56
2022/03/17 03:11:19;;;;;;;;;;;10.70;99.90;;;;;;5093087;28;20324;-55
2022/03/17 03:13:44;;;;;;;;;;;10.70;99.90;;;;;;5092691;28;20567;-56
2022/03/17 03:16:11;;;;;;;;;;;10.70;99.90;;;;;;5091714;28;20007;-56
2022/03/17 03:18:37;;;;;;;;;;;10.70;99.90;;;;;;5092429;28;19927;-55
2022/03/17 03:21:02;;;;;;;;;;;10.70;99.90;;;;;;5093123;28;19908;-56
2022/03/17 03:23:28;;;;;;;;;;;10.70;99.90;;;;;;5092342;28;19955;-56
2022/03/17 03:25:53;;;;;;;;;;;10.70;99.90;;;;;;5092985;28;19908;-56
2022/03/17 03:28:19;;;;;;;;;;;10.70;99.90;;;;;;5092997;28;20294;-55
2022/03/17 03:30:44;;;;;;;;;;;10.70;99.90;;;;;;5092222;28;19920;-56
2022/03/17 03:33:09;;;;;;;;;;;10.70;99.90;;;;;;5074590;28;19912;-55
2022/03/17 03:38:20;;;;;;;;;;;10.70;99.90;;;;;;5095368;28;19915;-56
2022/03/17 03:40:46;;;;;;;;;;;10.70;99.90;;;;;;5096683;28;19908;-56
2022/03/17 03:43:12;;;;;;;;;;;10.70;99.90;;;;;;5095657;28;19912;-56
2022/03/17 03:45:37;;;;;;;;;;;10.70;99.90;;;;;;5096561;28;20263;-56
2022/03/17 03:48:03;;;;;;;;;;;10.70;99.90;;;;;;5096418;28;19908;-56
2022/03/17 03:50:30;;;;;;;;;;;10.70;99.90;;;;;;5095965;28;19916;-56
2022/03/17 03:52:55;;;;;;;;;;;10.70;99.90;;;;;;5096048;28;19965;-56
2022/03/17 03:55:21;;;;;;;;;;;10.70;99.90;;;;;;5096221;28;20484;-56
2022/03/17 03:57:47;;;;;;;;;;;10.70;99.90;;;;;;5095863;28;19908;-56
2022/03/17 04:02:57;;;;;;;;;;;10.70;99.90;;;;;;5096166;28;19919;-56
2022/03/17 04:05:26;;;;;;;;;;;10.70;99.90;;;;;;5077760;28;19912;-56
2022/03/17 04:07:52;;;;;;;;;;;10.70;99.90;;;;;;5096167;28;19908;-56
2022/03/17 04:10:18;;;;;;;;;;;10.70;99.90;;;;;;5096030;28;20018;-56
2022/03/17 04:12:43;;;;;;;;;;;10.80;99.90;;;;;;5095319;28;19999;-56
2022/03/17 04:15:09;;;;;;;;;;;10.80;99.90;;;;;;5095998;28;19912;-56
2022/03/17 04:17:35;;;;;;;;;;;10.70;99.90;;;;;;5095850;28;19908;-56
2022/03/17 04:20:01;;;;;;;;;;;10.80;99.90;;;;;;5095252;28;19908;-56
2022/03/17 04:22:27;;;;;;;;;;;10.80;99.90;;;;;;5095249;28;19931;-55
2022/03/17 04:24:53;;;;;;;;;;;10.80;99.90;;;;;;5095301;28;19912;-56
2022/03/17 04:27:19;;;;;;;;;;;10.80;99.90;;;;;;5095659;28;20248;-56
2022/03/17 04:29:44;;;;;;;;;;;10.80;99.90;;;;;;5095370;28;20463;-56
2022/03/17 04:32:10;;;;;;;;;;;10.80;99.90;;;;;;5094813;28;19912;-56
2022/03/17 04:34:36;;;;;;;;;;;10.80;99.90;;;;;;5094854;28;19918;-56
2022/03/17 04:37:02;;;;;;;;;;;10.80;99.90;;;;;;5095344;28;19908;-56
2022/03/17 04:39:27;;;;;;;;;;;10.80;99.90;;;;;;5094908;28;20101;-56
2022/03/17 04:41:52;;;;;;;;;;;10.70;99.90;;;;;;5095006;28;19912;-56
2022/03/17 04:44:18;;;;;;;;;;;10.80;99.90;;;;;;5095394;28;19945;-56
2022/03/17 04:46:46;;;;;;;;;;;10.70;99.90;;;;;;5094884;28;19915;-55
2022/03/17 04:49:12;;;;;;;;;;;10.80;99.90;;;;;;5095138;28;20028;-56
2022/03/17 04:51:37;;;;;;;;;;;10.80;99.90;;;;;;5094008;28;20006;-55
2022/03/17 04:54:03;;;;;;;;;;;10.80;99.90;;;;;;5093207;28;19908;-56
2022/03/17 04:56:28;;;;;;;;;;;10.80;99.90;;;;;;5095171;28;19915;-55
2022/03/17 04:58:54;;;;;;;;;;;10.70;99.90;;;;;;5095172;28;20359;-56
2022/03/17 05:01:19;;;;;;;;;;;10.60;99.90;;;;;;5094547;28;20310;-56
2022/03/17 05:03:45;;;;;;;;;;;10.60;99.90;;;;;;5094962;28;19933;-56
2022/03/17 05:06:14;;;;;;;;;;;10.50;99.90;;;;;;5094934;28;19908;-56
2022/03/17 05:08:40;;;;;;;;;;;10.50;99.90;;;;;;5094483;28;19951;-55
2022/03/17 05:11:07;;;;;;;;;;;10.40;99.90;;;;;;5094825;28;19998;-55
2022/03/17 05:13:33;;;;;;;;;;;10.40;99.90;;;;;;5094860;28;19908;-55
2022/03/17 05:15:59;;;;;;;;;;;10.40;99.90;;;;;;5094271;28;19935;-56
2022/03/17 05:18:25;;;;;;;;;;;10.30;99.90;;;;;;5094746;28;20267;-56
2022/03/17 05:20:50;;;;;;;;;;;10.30;99.90;;;;;;5094738;28;19914;-55
2022/03/17 05:23:18;;;;;;;;;;;10.30;99.90;;;;;;5094110;28;20320;-55
2022/03/17 05:25:44;;;;;;;;;;;10.30;99.90;;;;;;5094671;28;19934;-56
2022/03/17 05:28:10;;;;;;;;;;;10.20;99.90;;;;;;5094045;28;19915;-56
2022/03/17 05:30:37;;;;;;;;;;;10.20;99.90;;;;;;5094041;28;19920;-56
2022/03/17 05:33:03;;;;;;;;;;;10.20;99.90;;;;;;5094399;28;19908;-53
2022/03/17 05:35:28;;;;;;;;;;;10.20;99.90;;;;;;5093865;28;20002;-53
2022/03/17 05:37:54;;;;;;;;;;;10.20;99.90;;;;;;5094446;28;20389;-53
2022/03/17 05:40:20;;;;;;;;;;;10.10;99.90;;;;;;5094350;28;20343;-52
2022/03/17 05:42:46;;;;;;;;;;;10.00;99.90;;;;;;5093872;28;19908;-55
2022/03/17 05:45:12;;;;;;;;;;;9.80;99.90;;;;;;5094276;28;19915;-54
2022/03/17 05:47:39;;;;;;;;;;;9.50;99.90;;;;;;5094009;28;20510;-53
2022/03/17 05:50:06;;;;;;;;;;;9.30;99.90;;;;;;5093422;28;20286;-53
2022/03/17 05:52:31;;;;;;;;;;;9.10;99.90;;;;;;5094121;28;19909;-55
2022/03/17 05:54:57;;;;;;;;;;;9.00;99.90;;;;;;5094072;28;19908;-54
2022/03/17 05:57:22;;;;;;;;;;;8.90;99.90;;;;;;5093475;28;19912;-54
2022/03/17 05:59:48;;;;;;;;;;;8.90;99.90;;;;;;5093661;28;19909;-54
2022/03/17 06:02:13;;;;;;;;;;;8.80;99.90;;;;;;5093893;28;19916;-52
2022/03/17 06:04:40;;;;;;;;;;;8.70;99.90;;;;;;5093400;28;19948;-54
2022/03/17 06:07:06;;;;;;;;;;;8.70;99.90;;;;;;5093862;28;19944;-52
2022/03/17 06:09:31;;;;;;;;;;;8.70;99.90;;;;;;5093854;28;19951;-53
2022/03/17 06:11:57;;;;;;;;;;;8.60;99.90;;;;;;5093254;28;19912;-52
2022/03/17 06:14:23;;;;;;;;;;;8.60;99.90;;;;;;5093605;28;19915;-54
2022/03/17 06:16:48;;;;;;;;;;;8.60;99.90;;;;;;5093704;28;19911;-54
2022/03/17 06:19:13;;;;;;;;;;;8.60;99.90;;;;;;5093213;28;19908;-54
2022/03/17 06:21:39;;;;;;;;;;;8.60;99.90;;;;;;5093747;28;19934;-54
2022/03/17 06:24:04;;;;;;;;;;;8.60;99.90;;;;;;5093673;28;19916;-55
2022/03/17 06:26:30;;;;;;;;;;;8.60;99.90;;;;;;5093311;28;20008;-54
2022/03/17 06:28:55;;;;;;;;;;;8.60;99.90;;;;;;5093692;28;19908;-54
2022/03/17 06:31:21;;;;;;;;;;;8.60;99.90;;;;;;5092697;28;19920;-54
2022/03/17 06:33:46;;;;;;;;;;;8.60;99.90;;;;;;5093609;28;19962;-54
2022/03/17 06:36:13;;;;;;;;;;;8.50;99.90;;;;;;5093387;28;19909;-54
2022/03/17 06:38:38;;;;;;;;;;;8.60;99.90;;;;;;5093005;28;19995;-55
2022/03/17 06:41:04;;;;;;;;;;;8.50;99.90;;;;;;5093450;28;19981;-55
2022/03/17 06:43:29;;;;;;;;;;;8.50;99.90;;;;;;5093370;28;19908;-55
2022/03/17 06:45:55;;;;;;;;;;;8.50;99.90;;;;;;5092899;28;20248;-55
2022/03/17 06:48:20;;;;;;;;;;;8.60;99.90;;;;;;5093452;28;20325;-54
2022/03/17 06:50:46;;;;;;;;;;;8.60;99.90;;;;;;5093427;28;19916;-54
2022/03/17 06:53:11;;;;;;;;;;;8.60;99.90;;;;;;5092866;28;19908;-55
2022/03/17 06:55:37;;;;;;;;;;;8.60;99.90;;;;;;5093396;28;19914;-54
2022/03/17 06:58:02;;;;;;;;;;;8.60;99.90;;;;;;5093305;28;19908;-55
2022/03/17 07:00:28;;;;;;;;;;;8.60;99.90;;;;;;5092771;28;19940;-56
2022/03/17 07:02:53;;;;;;;;;;;8.60;99.90;;;;;;5093359;28;20335;-54
2022/03/17 07:05:18;;;;;;;;;;;8.60;99.90;;;;;;5093298;28;19916;-55
2022/03/17 07:07:44;;;;;;;;;;;8.60;99.90;;;;;;5092812;28;19908;-55
2022/03/17 07:10:10;;;;;;;;;;;8.60;99.90;;;;;;5093207;28;19919;-55
2022/03/17 07:12:36;;;;;;;;;;;8.60;99.90;;;;;;5094652;28;19912;-55
2022/03/17 07:15:01;;;;;;;;;;;8.50;99.90;;;;;;5096464;28;20309;-56
2022/03/17 07:17:34;;;;;;;;;;;8.60;99.90;;;;;;5097089;28;19912;-55
2022/03/17 07:20:03;;;;;;;;;;;8.60;99.90;;;;;;5097165;28;19912;-56
2022/03/17 07:22:28;;;;;;;;;;;8.60;99.90;;;;;;5096431;28;19923;-55
2022/03/17 07:24:54;;;;;;;;;;;8.60;99.90;;;;;;5096913;28;19908;-56
2022/03/17 07:27:23;;;;;;;;;;;8.60;99.90;;;;;;5096896;28;19908;-55
2022/03/17 07:29:49;;;;;;;;;;;8.60;99.90;;;;;;5095983;28;20018;-56
2022/03/17 07:32:15;;;;;;;;;;;8.60;99.90;;;;;;5096788;28;19908;-56
2022/03/17 07:34:40;;;;;;;;;;;8.60;99.90;;;;;;5096145;28;19908;-56
2022/03/17 07:37:06;;;;;;;;;;;8.50;99.90;;;;;;5096806;28;19908;-55
2022/03/17 07:39:31;;;;;;;;;;;8.60;99.90;;;;;;5096757;28;20343;-55
2022/03/17 07:41:56;;;;;;;;;;;8.60;99.90;;;;;;5096121;28;19916;-56
2022/03/17 07:44:22;;;;;;;;;;;8.50;99.90;;;;;;5096609;28;19912;-56
2022/03/17 07:46:48;;;;;;;;;;;8.60;99.90;;;;;;5095302;28;19991;-56
2022/03/17 07:49:14;;;;;;;;;;;8.50;99.90;;;;;;5094970;28;19914;-56
2022/03/17 07:51:40;;;;;;;;;;;8.50;99.90;;;;;;5095479;28;19974;-56
2022/03/17 07:54:07;;;;;;;;;;;8.60;99.90;;;;;;5094854;28;20477;-56
2022/03/17 07:56:33;;;;;;;;;;;8.60;99.90;;;;;;5095052;28;19919;-56
2022/03/17 07:58:59;;;;;;;;;;;8.60;99.90;;;;;;5094888;28;19912;-56
2022/03/17 08:01:25;;;;;;;;;;;8.60;99.90;;;;;;5095447;28;19909;-55
2022/03/17 08:03:54;;;;;;;;;;;8.70;99.90;;;;;;5095096;28;19908;-56
2022/03/17 08:06:21;;;;;;;;;;;8.60;99.90;;;;;;5082851;28;19919;-56
2022/03/17 08:08:46;;;;;;;;;;;8.60;99.90;;;;;;5075295;28;19909;-56
2022/03/17 08:11:12;;;;;;;;;;;8.60;99.90;;;;;;5074148;28;19923;-55
2022/03/17 08:13:38;;;;;;;;;;;8.60;99.90;;;;;;5075186;28;19908;-56
2022/03/17 08:16:03;;;;;;;;;;;8.50;99.90;;;;;;5079144;28;19908;-56
2022/03/17 08:18:30;;;;;;;;;;;8.50;99.90;;;;;;5094764;28;20045;-56
2022/03/17 08:20:55;;;;;;;;;;;8.60;99.90;;;;;;5095226;28;19908;-56
2022/03/17 08:23:22;;;;;;;;;;;8.60;99.90;;;;;;5094659;28;19969;-57
2022/03/17 08:25:48;;;;;;;;;;;8.60;99.90;;;;;;5094584;28;19912;-56
2022/03/17 08:28:14;;;;;;;;;;;8.60;99.90;;;;;;5094781;28;19908;-56
2022/03/17 08:30:39;;;;;;;;;;;8.60;99.90;;;;;;5094801;28;20363;-56
2022/03/17 08:33:05;;;;;;;;;;;8.60;99.90;;;;;;5094203;28;19912;-56
2022/03/17 08:35:30;;;;;;;;;;;8.50;99.90;;;;;;5095038;28;20405;-56
2022/03/17 08:37:57;;;;;;;;;;;8.50;99.90;;;;;;5094133;28;19908;-56
2022/03/17 08:40:22;;;;;;;;;;;8.50;99.90;;;;;;5094738;28;19968;-56
2022/03/17 08:42:48;;;;;;;;;;;8.50;99.90;;;;;;5094880;28;19948;-56
2022/03/17 08:50:42;;;;;;;;;;;8.50;99.90;;;;;;5090953;28;20320;-57
2022/03/17 08:53:08;;;;;;;;;;;8.60;99.90;;;;;;5093776;28;19912;-57
2022/03/17 08:55:34;;;;;;;;;;;8.60;99.90;;;;;;5094562;28;19953;-56
2022/03/17 08:58:00;;;;;;;;;;;8.60;99.90;;;;;;5094185;28;19916;-56
2022/03/17 09:00:25;;;;;;;;;;;8.60;99.90;;;;;;5094091;28;19912;-56
2022/03/17 09:02:53;;;;;;;;;;;8.60;99.90;;;;;;5094031;28;19919;-56
2022/03/17 09:05:18;;;;;;;;;;;8.60;99.90;;;;;;5093941;28;20320;-56
2022/03/17 09:07:44;;;;;;;;;;;8.60;99.90;;;;;;5093861;28;19912;-56
2022/03/17 09:10:09;;;;;;;;;;;8.70;99.90;;;;;;5093954;28;19920;-57
2022/03/17 09:12:35;;;;;;;;;;;8.70;99.90;;;;;;5093868;28;19953;-57
2022/03/17 09:15:00;;;;;;;;;;;8.70;99.90;;;;;;5093829;28;20347;-56
2022/03/17 09:17:26;;;;;;;;;;;8.70;99.90;;;;;;5093560;28;19912;-56
2022/03/17 09:19:51;;;;;;;;;;;8.60;99.90;;;;;;5093934;28;19912;-56
2022/03/17 09:22:17;;;;;;;;;;;8.60;99.90;;;;;;5093157;28;19919;-56
2022/03/17 09:24:45;;;;;;;;;;;8.60;99.90;;;;;;5094095;28;19915;-56
2022/03/17 09:27:10;;;;;;;;;;;8.60;99.90;;;;;;5093224;28;19914;-56
2022/03/17 09:29:38;;;;;;;;;;;8.70;99.90;;;;;;5093142;28;19986;-55
2022/03/17 09:32:04;;;;;;;;;;;8.80;99.90;;;;;;5093821;28;19920;-56
2022/03/17 09:34:32;;;;;;;;;;;8.90;99.90;;;;;;5092772;28;19922;-56
2022/03/17 09:36:57;;;;;;;;;;;9.00;99.90;;;;;;5092827;28;19912;-57
2022/03/17 09:42:07;;;;;;;;;;;9.20;99.90;;;;;;5092893;28;19915;-56
2022/03/17 09:44:33;;;;;;;;;;;9.20;99.90;;;;;;5093166;28;20279;-56
2022/03/17 09:46:59;;;;;;;;;;;9.20;99.90;;;;;;5092925;28;19909;-57
2022/03/17 09:49:26;;;;;;;;;;;9.20;99.90;;;;;;5092859;28;19912;-56
2022/03/17 09:51:55;;;;;;;;;;;9.10;99.90;;;;;;5092797;28;19916;-56
2022/03/17 09:54:21;;;;;;;;;;;9.20;99.90;;;;;;5093079;28;19912;-56
2022/03/17 09:56:46;;;;;;;;;;;9.20;99.90;;;;;;5092638;28;20339;-56
2022/03/17 09:59:12;;;;;;;;;;;9.20;99.90;;;;;;5092719;28;20382;-56
2022/03/17 10:01:38;;;;;;;;;;;9.20;99.90;;;;;;5081108;28;19908;-56
2022/03/17 10:04:03;;;;;;;;;;;9.20;99.90;;;;;;5072379;28;19912;-56
2022/03/17 10:06:29;;;;;;;;;;;9.30;99.90;;;;;;5086570;28;19908;-56
2022/03/17 10:08:55;;;;;;;;;;;9.20;99.90;;;;;;5093015;28;19959;-56
2022/03/17 10:11:25;;;;;;;;;;;9.20;99.90;;;;;;5092585;28;19916;-56
2022/03/17 10:13:50;;;;;;;;;;;9.20;99.90;;;;;;5093210;28;19915;-55
2022/03/17 10:16:17;;;;;;;;;;;9.20;99.90;;;;;;5092540;28;19912;-57
2022/03/17 10:18:45;;;;;;;;;;;9.30;99.90;;;;;;5092698;28;20359;-57
2022/03/17 10:21:11;;;;;;;;;;;9.40;99.90;;;;;;5092880;28;19915;-56
2022/03/17 10:23:48;;;;;;;;;;;9.50;99.90;;;;;;5092188;28;19908;-56
2022/03/17 10:26:29;;;;;;;;;;;9.60;99.90;;;;;;5091265;28;19912;-56
2022/03/17 10:29:02;;;;;;;;;;;9.70;99.90;;;;;;5092633;28;19965;-56
2022/03/17 10:31:28;;;;;;;;;;;9.80;99.90;;;;;;5088094;28;20255;-56
2022/03/17 10:33:53;;;;;;;;;;;9.90;99.90;;;;;;5072293;28;19915;-56
2022/03/17 10:36:22;;;;;;;;;;;10.00;99.90;;;;;;5072317;28;19908;-56
2022/03/17 10:38:49;;;;;;;;;;;10.10;99.90;;;;;;5072140;28;19913;-55
2022/03/17 10:41:14;;;;;;;;;;;10.20;99.90;;;;;;5072307;28;19908;-56
2022/03/17 10:43:42;;;;;;;;;;;10.30;99.90;;;;;;5076302;28;20355;-56
2022/03/17 10:46:07;;;;;;;;;;;10.30;99.90;;;;;;5092563;28;19912;-56
2022/03/17 10:48:33;;;;;;;;;;;10.30;99.90;;;;;;5096732;28;19908;-55
2022/03/17 10:50:58;;;;;;;;;;;10.20;99.90;;;;;;5096742;28;19923;-56
2022/03/17 10:53:27;;;;;;;;;;;10.30;99.90;;;;;;5096034;28;19908;-56
2022/03/17 10:56:08;;;;;;;;;;;10.70;99.90;;;;;;5096961;28;19908;-56
2022/03/17 10:58:40;;;;;;;;;;;10.90;99.90;;;;;;5095858;28;20328;-56
2022/03/17 11:01:05;;;;;;;;;;;10.90;99.90;;;;;;5096262;28;20347;-56
2022/03/17 11:03:31;;;;;;;;;;;10.90;99.90;;;;;;5096883;28;19915;-56
2022/03/17 11:05:57;;;;;;;;;;;10.80;99.90;;;;;;5096001;28;20397;-56
2022/03/17 11:08:22;;;;;;;;;;;10.70;99.90;;;;;;5096755;28;19912;-56
2022/03/17 11:10:49;;;;;;;;;;;10.80;99.90;;;;;;5095885;28;19931;-56
2022/03/17 11:13:14;;;;;;;;;;;10.90;99.90;;;;;;5095701;28;19931;-56
2022/03/17 11:15:58;;;;;;;;;;;11.10;99.90;;;;;;5096395;28;20354;-56
2022/03/17 11:18:25;;;;;;;;;;;11.40;99.90;;;;;;5096370;28;19916;-56
2022/03/17 11:21:10;;;;;;;;;;;11.60;94.60;;;;;;5095100;28;19915;-55
2022/03/17 11:23:49;;;;;;;;;;;11.60;94.90;;;;;;5096212;28;19921;-56
2022/03/17 11:26:20;;;;;;;;;;;11.70;99.90;;;;;;5095882;28;20376;-56
2022/03/17 11:28:48;;;;;;;;;;;11.80;98.10;;;;;;5095511;28;19908;-56
2022/03/17 11:31:17;;;;;;;;;;;11.90;99.90;;;;;;5095384;28;19920;-56
2022/03/17 11:33:43;;;;;;;;;;;11.80;95.30;;;;;;5095722;28;20485;-56
2022/03/17 11:36:08;;;;;;;;;;;11.90;99.90;;;;;;5095579;28;19916;-56
2022/03/17 11:41:27;;;;;;;;;;;12.00;99.90;;;;;;5080955;28;19919;-56
2022/03/17 11:43:56;;;;;;;;;;;12.20;99.90;;;;;;5095375;28;19916;-56
2022/03/17 11:46:34;;;;;;;;;;;12.00;98.40;;;;;;5095623;28;19935;-55
2022/03/17 11:49:15;;;;;;;;;;;11.80;95.40;;;;;;5094345;28;19920;-55
2022/03/17 11:51:50;;;;;;;;;;;11.40;99.90;;;;;;5095470;28;19924;-55
2022/03/17 11:54:16;;;;;;;;;;;11.50;96.50;;;;;;5076883;28;20274;-55
2022/03/17 11:56:43;;;;;;;;;;;11.60;92.60;;;;;;5094946;28;19912;-56
2022/03/17 11:59:09;;;;;;;;;;;11.70;94.30;;;;;;5094725;28;19908;-56
2022/03/17 12:01:39;;;;;;;;;;;11.90;94.10;;;;;;5095118;28;20342;-55
2022/03/17 12:04:05;;;;;;;;;;;12.20;96.90;;;;;;5093713;28;19923;-54
2022/03/17 12:06:32;;;;;;;;;;;12.40;99.90;;;;;;5094371;28;20275;-55
2022/03/17 12:09:00;;;;;;;;;;;12.60;95.00;;;;;;5094043;28;20296;-55
2022/03/17 12:11:27;;;;;;;;;;;12.60;97.50;;;;;;5094977;28;20473;-55
2022/03/17 12:14:10;;;;;;;;;;;12.70;96.20;;;;;;5094810;28;20352;-55
2022/03/17 12:16:42;;;;;;;;;;;12.50;77.60;;;;;;5094195;28;19964;-55
2022/03/17 12:19:07;;;;;;;;;;;12.40;81.40;;;;;;5094246;28;19913;-56
2022/03/17 12:21:51;;;;;;;;;;;12.20;77.00;;;;;;5094989;28;19920;-56
2022/03/17 12:24:36;;;;;;;;;;;12.10;84.30;;;;;;5093948;28;19912;-55
2022/03/17 12:27:13;;;;;;;;;;;12.00;82.10;;;;;;5095139;28;19912;-56
2022/03/17 12:29:39;;;;;;;;;;;11.90;89.70;;;;;;5094368;28;19916;-55
2022/03/17 12:32:10;;;;;;;;;;;12.00;92.90;;;;;;5094291;28;19989;-56
2022/03/17 12:34:36;;;;;;;;;;;12.10;97.60;;;;;;5094792;28;19915;-56
2022/03/17 12:37:01;;;;;;;;;;;12.20;94.20;;;;;;5094470;28;19913;-54
2022/03/17 12:39:28;;;;;;;;;;;12.00;94.70;;;;;;5093990;28;19916;-55
2022/03/17 12:41:53;;;;;;;;;;;11.80;90.60;;;;;;5094696;28;19909;-55
2022/03/17 12:44:25;;;;;;;;;;;11.90;86.20;;;;;;5093255;28;20366;-55
2022/03/17 12:46:51;;;;;;;;;;;12.00;88.80;;;;;;5094197;28;19919;-56
2022/03/17 12:49:20;;;;;;;;;;;12.00;93.30;;;;;;5093976;28;20547;-55
2022/03/17 12:51:46;;;;;;;;;;;12.00;84.60;;;;;;5093696;28;20488;-55
2022/03/17 12:54:15;;;;;;;;;;;12.20;89.10;;;;;;5093999;28;19935;-55
2022/03/17 12:56:51;;;;;;;;;;;12.30;86.50;;;;;;5094242;28;19937;-56
2022/03/17 12:59:17;;;;;;;;;;;12.40;91.90;;;;;;5093723;28;20038;-55
2022/03/17 13:01:44;;;;;;;;;;;12.70;91.30;;;;;;5094097;28;20388;-55
2022/03/17 13:04:09;;;;;;;;;;;12.50;77.00;;;;;;5093299;28;19916;-55
2022/03/17 13:06:54;;;;;;;;;;;12.20;73.60;;;;;;5093447;28;19937;-56
2022/03/17 13:09:26;;;;;;;;;;;12.20;89.40;;;;;;5092545;28;19912;-55
2022/03/17 13:15:04;;;;;;;;;;;12.20;82.30;;;;;;5093405;28;19965;-55
2022/03/17 13:17:37;;;;;;;;;;;12.50;82.80;;;;;;5093377;28;20378;-56
2022/03/17 13:20:06;;;;;;;;;;;12.20;79.00;;;;;;5078126;28;19912;-56
2022/03/17 13:22:34;;;;;;;;;;;12.50;80.00;;;;;;5094264;28;19908;-55
2022/03/17 13:25:00;;;;;;;;;;;12.70;82.70;;;;;;5093750;28;19940;-55
2022/03/17 13:27:26;;;;;;;;;;;12.60;82.70;;;;;;5092916;28;20327;-55
2022/03/17 13:29:53;;;;;;;;;;;12.60;84.30;;;;;;5093192;28;19967;-56
2022/03/17 13:32:18;;;;;;;;;;;12.50;81.20;;;;;;5093402;28;19915;-55
2022/03/17 13:34:43;;;;;;;;;;;12.50;78.70;;;;;;5093328;28;19909;-55
2022/03/17 13:37:10;;;;;;;;;;;12.20;75.00;;;;;;5093117;28;19915;-54
2022/03/17 13:39:36;;;;;;;;;;;12.40;80.20;;;;;;5093659;28;19908;-55
2022/03/17 13:42:09;;;;;;;;;;;12.70;82.70;;;;;;5092792;28;19908;-56
2022/03/17 13:44:41;;;;;;;;;;;13.10;84.40;;;;;;5078052;28;19908;-56
2022/03/17 13:47:26;;;;;;;;;;;13.40;71.20;;;;;;5072716;28;19916;-55
2022/03/17 13:50:07;;;;;;;;;;;13.70;66.20;;;;;;5073137;28;19940;-55
2022/03/17 13:52:33;;;;;;;;;;;14.00;59.10;;;;;;5091274;28;19912;-55
2022/03/17 13:54:58;;;;;;;;;;;14.20;61.90;;;;;;5107356;28;20285;-55
2022/03/17 13:57:24;;;;;;;;;;;14.40;68.60;;;;;;5103690;28;19916;-55
2022/03/17 13:59:49;;;;;;;;;;;14.50;59.00;;;;;;5101213;28;19908;-56
2022/03/17 14:02:17;;;;;;;;;;;14.30;56.90;;;;;;5105675;28;19912;-55
2022/03/17 14:04:55;;;;;;;;;;;14.20;56.90;;;;;;5093813;28;19973;-56
2022/03/17 14:07:20;;;;;;;;;;;14.30;58.50;;;;;;5112867;28;20421;-56
2022/03/17 14:09:46;;;;;;;;;;;14.70;58.40;;;;;;5113182;28;19972;-55
2022/03/17 14:12:11;;;;;;;;;;;14.90;56.40;;;;;;5113106;28;19908;-55
2022/03/17 14:14:37;;;;;;;;;;;15.10;53.70;;;;;;5113536;28;19908;-55
2022/03/17 14:17:02;;;;;;;;;;;15.20;55.60;;;;;;5108207;28;19958;-55
2022/03/17 14:19:29;;;;;;;;;;;15.20;57.20;;;;;;5092702;28;19912;-55
2022/03/17 14:24:41;;;;;;;;;;;15.10;65.00;;;;;;5092202;28;19915;-56
2022/03/17 14:27:07;;;;;;;;;;;15.10;56.10;;;;;;5091612;28;19951;-55
2022/03/17 14:29:32;;;;;;;;;;;15.20;53.50;;;;;;5096843;28;20373;-57
2022/03/17 14:32:02;;;;;;;;;;;15.40;57.70;;;;;;5111945;28;20214;-56
2022/03/17 14:34:27;;;;;;;;;;;15.60;59.60;;;;;;5101273;28;19920;-55
2022/03/17 14:36:53;;;;;;;;;;;15.90;57.10;;;;;;5092364;28;19912;-56
2022/03/17 14:39:19;;;;;;;;;;;16.20;56.60;;;;;;5092592;28;19962;-55
2022/03/17 14:41:45;;;;;;;;;;;16.30;51.70;;;;;;5092628;28;20363;-56
2022/03/17 14:44:11;;;;;;;;;;;16.20;51.10;;;;;;5091889;28;19990;-56
2022/03/17 14:46:37;;;;;;;;;;;16.40;50.60;;;;;;5104420;28;20012;-56